Time;durP1;ratioP1;P1;durP2;ratioP2;P2;SDS_P1;SDS_P2;PMS_P1;PMS_P2;Temp;Humidity;BMP_temperature;BMP_pressure;BME280_temperature;BME280_humidity;BME280_pressure;Samples;Min_cycle;Max_cycle;Signal;HPM_P1;HPM_P2
2023/01/21 00:02:01;;;;;;;28.77;16.50;;;;;-0.70;101852.00;;;;10349810;28;20198;-77
2023/01/21 00:07:04;;;;;;;35.50;15.43;;;;;-0.70;101862.00;;;;10367248;28;20230;-77
2023/01/21 00:12:06;;;;;;;33.30;16.57;;;;;-0.70;101858.00;;;;10349221;28;20447;-76
2023/01/21 00:17:08;;;;;;;36.57;18.20;;;;;-0.80;101880.00;;;;10364004;28;21017;-76
2023/01/21 00:22:10;;;;;;;32.47;17.50;;;;;-0.80;101876.00;;;;10364160;28;20261;-77
2023/01/21 00:27:12;;;;;;;33.70;17.93;;;;;-0.80;101887.00;;;;10364089;28;20234;-77
2023/01/21 00:32:14;;;;;;;34.97;18.93;;;;;-0.80;101885.00;;;;10379869;28;20217;-77
2023/01/21 00:37:16;;;;;;;34.80;16.87;;;;;-0.80;101892.00;;;;10366289;28;20670;-77
2023/01/21 00:42:18;;;;;;;36.47;18.40;;;;;-0.80;101892.00;;;;10382387;28;20194;-77
2023/01/21 00:47:20;;;;;;;36.40;18.47;;;;;-0.90;101908.00;;;;10365487;28;20273;-77
2023/01/21 00:52:22;;;;;;;38.83;19.07;;;;;-0.90;101926.00;;;;10386672;28;20213;-77
2023/01/21 00:57:23;;;;;;;38.03;17.00;;;;;-0.90;101929.00;;;;10355739;28;20206;-77
2023/01/21 01:02:26;;;;;;;38.37;17.87;;;;;-1.00;101935.00;;;;10390984;28;20206;-77
2023/01/21 01:07:28;;;;;;;37.03;19.37;;;;;-1.00;101938.00;;;;10360360;28;20216;-77
2023/01/21 01:12:29;;;;;;;37.97;19.47;;;;;-1.00;101943.00;;;;10354086;28;20250;-77
2023/01/21 01:17:31;;;;;;;45.77;20.43;;;;;-1.00;101949.00;;;;10361806;28;20245;-77
2023/01/21 01:22:33;;;;;;;42.83;18.93;;;;;-1.00;101967.00;;;;10388854;28;20205;-78
2023/01/21 01:27:37;;;;;;;48.30;20.93;;;;;-1.00;101981.00;;;;10389366;28;20211;-77
2023/01/21 01:32:39;;;;;;;40.43;20.57;;;;;-1.00;101990.00;;;;10351355;28;20287;-77
2023/01/21 01:37:41;;;;;;;45.43;19.43;;;;;-1.00;101988.00;;;;10348793;28;20765;-77
2023/01/21 01:42:43;;;;;;;43.20;18.77;;;;;-1.00;102005.00;;;;10392955;28;20218;-77
2023/01/21 01:47:57;;;;;;;38.77;17.87;;;;;-1.00;102011.00;;;;10376265;28;20215;-77
2023/01/21 01:53:00;;;;;;;50.63;21.93;;;;;-1.10;102016.00;;;;10367478;28;20262;-78
2023/01/21 01:58:06;;;;;;;46.33;20.37;;;;;-1.10;102022.00;;;;10357771;28;20286;-77
2023/01/21 02:08:31;;;;;;;43.30;19.17;;;;;-1.10;102043.00;;;;10393619;28;20310;-77
2023/01/21 02:13:33;;;;;;;44.23;18.90;;;;;-1.10;102051.00;;;;10370802;28;20226;-78
2023/01/21 02:19:12;;;;;;;39.33;19.00;;;;;-1.20;102056.00;;;;10379631;28;20203;-78
2023/01/21 02:24:55;;;;;;;44.13;20.93;;;;;-1.20;102049.00;;;;10360895;28;20203;-77
2023/01/21 02:30:06;;;;;;;46.73;20.43;;;;;-1.20;102052.00;;;;10354381;28;20791;-77
2023/01/21 02:35:22;;;;;;;47.30;21.00;;;;;-1.20;102052.00;;;;10370951;28;20203;-78
2023/01/21 02:40:26;;;;;;;42.23;18.97;;;;;-1.20;102076.00;;;;10391722;28;20233;-77
2023/01/21 02:45:37;;;;;;;48.27;21.23;;;;;-1.20;102077.00;;;;10381144;28;20204;-77
2023/01/21 02:50:45;;;;;;;46.07;20.37;;;;;-1.30;102071.00;;;;10401365;28;20211;-77
2023/01/21 02:55:47;;;;;;;41.87;19.47;;;;;-1.40;102088.00;;;;10388557;28;20240;-77
2023/01/21 03:00:56;;;;;;;51.43;21.20;;;;;-1.40;102099.00;;;;10390985;28;20202;-78
2023/01/21 03:06:20;;;;;;;49.53;20.87;;;;;-1.50;102100.00;;;;10391383;28;20202;-78
2023/01/21 03:11:22;;;;;;;49.70;20.53;;;;;-1.50;102104.00;;;;10372336;28;20313;-78
2023/01/21 03:21:50;;;;;;;53.20;21.03;;;;;-1.60;102113.00;;;;10383441;28;20282;-78
2023/01/21 03:26:56;;;;;;;45.60;19.37;;;;;-1.60;102127.00;;;;10375345;28;20207;-78
2023/01/21 03:32:04;;;;;;;45.33;19.20;;;;;-1.70;102126.00;;;;10365383;28;20194;-78
2023/01/21 03:37:12;;;;;;;51.73;20.90;;;;;-1.80;102129.00;;;;10378928;28;20207;-78
2023/01/21 03:42:14;;;;;;;47.07;19.27;;;;;-1.80;102141.00;;;;10400051;28;20218;-78
2023/01/21 03:47:30;;;;;;;57.67;24.67;;;;;-1.90;102129.00;;;;10407949;28;20215;-78
2023/01/21 03:52:32;;;;;;;48.63;19.60;;;;;-1.90;102130.00;;;;10385058;28;20324;-78
2023/01/21 03:57:34;;;;;;;50.77;20.67;;;;;-1.90;102119.00;;;;10381968;28;20207;-77
2023/01/21 04:02:36;;;;;;;60.70;22.97;;;;;-1.90;102131.00;;;;10371689;28;20204;-77
2023/01/21 04:07:38;;;;;;;50.53;21.87;;;;;-1.90;102139.00;;;;10399639;28;20228;-77
2023/01/21 04:12:40;;;;;;;53.43;20.93;;;;;-1.90;102134.00;;;;10379552;28;20218;-78
2023/01/21 04:17:42;;;;;;;55.83;21.63;;;;;-2.00;102145.00;;;;10378345;28;20674;-78
2023/01/21 04:22:44;;;;;;;49.10;21.23;;;;;-2.00;102150.00;;;;10367341;28;20207;-78
2023/01/21 04:27:46;;;;;;;48.70;23.37;;;;;-2.00;102153.00;;;;10422826;28;20215;-78
2023/01/21 04:32:48;;;;;;;50.30;20.50;;;;;-2.00;102158.00;;;;10389170;28;20202;-78
2023/01/21 04:37:50;;;;;;;57.10;21.77;;;;;-2.00;102164.00;;;;10371939;28;20276;-78
2023/01/21 04:42:52;;;;;;;51.10;18.93;;;;;-2.00;102185.00;;;;10404810;28;20199;-78
2023/01/21 04:47:54;;;;;;;53.90;21.60;;;;;-2.00;102192.00;;;;10384110;28;20211;-78
2023/01/21 04:52:55;;;;;;;54.37;20.90;;;;;-2.10;102194.00;;;;10418005;28;20203;-78
2023/01/21 04:57:57;;;;;;;45.03;19.87;;;;;-2.10;102203.00;;;;10360456;28;20627;-78
2023/01/21 05:02:59;;;;;;;56.73;23.47;;;;;-2.10;102210.00;;;;10385266;28;20223;-78
2023/01/21 05:08:01;;;;;;;48.03;19.93;;;;;-2.10;102220.00;;;;10390723;28;20286;-77
2023/01/21 05:13:03;;;;;;;51.10;23.20;;;;;-2.10;102216.00;;;;10367341;28;20225;-77
2023/01/21 05:18:05;;;;;;;58.13;23.20;;;;;-2.10;102222.00;;;;10383501;28;20195;-78
2023/01/21 05:23:07;;;;;;;56.70;23.47;;;;;-2.20;102222.00;;;;10396124;28;20198;-78
2023/01/21 05:28:09;;;;;;;57.00;21.97;;;;;-2.20;102226.00;;;;10408573;28;20222;-78
2023/01/21 05:33:11;;;;;;;54.80;22.33;;;;;-2.20;102220.00;;;;10362576;28;20249;-78
2023/01/21 05:38:13;;;;;;;59.80;22.40;;;;;-2.20;102227.00;;;;10375811;28;20199;-78
2023/01/21 05:43:15;;;;;;;64.87;26.40;;;;;-2.30;102244.00;;;;10363840;28;20202;-78
2023/01/21 05:48:17;;;;;;;62.20;21.67;;;;;-2.20;102240.00;;;;10385708;28;20269;-78
2023/01/21 05:53:19;;;;;;;54.57;22.07;;;;;-2.20;102249.00;;;;10372496;28;20287;-78
2023/01/21 05:58:23;;;;;;;54.87;21.43;;;;;-2.30;102260.00;;;;10361774;28;20234;-78
2023/01/21 06:03:25;;;;;;;60.00;23.70;;;;;-2.30;102265.00;;;;10368367;28;20261;-78
2023/01/21 06:08:27;;;;;;;53.73;23.43;;;;;-2.30;102280.00;;;;10373574;28;20215;-77
2023/01/21 06:13:29;;;;;;;51.60;22.57;;;;;-2.40;102285.00;;;;10367233;28;20387;-78
2023/01/21 06:18:31;;;;;;;56.70;23.07;;;;;-2.40;102289.00;;;;10388064;28;20684;-78
2023/01/21 06:23:33;;;;;;;53.30;21.67;;;;;-2.40;102292.00;;;;10378291;28;20213;-78
2023/01/21 06:28:35;;;;;;;55.43;22.90;;;;;-2.40;102301.00;;;;10372538;28;20791;-78
2023/01/21 06:33:36;;;;;;;61.80;24.37;;;;;-2.50;102312.00;;;;10386292;28;20195;-77
2023/01/21 06:38:38;;;;;;;61.67;21.33;;;;;-2.50;102318.00;;;;10364285;28;20285;-78
2023/01/21 06:43:40;;;;;;;55.53;21.37;;;;;-2.50;102331.00;;;;10386499;28;20194;-78
2023/01/21 06:48:42;;;;;;;55.10;20.47;;;;;-2.60;102336.00;;;;10365444;28;20285;-78
2023/01/21 06:53:44;;;;;;;47.63;19.63;;;;;-2.70;102350.00;;;;10370329;28;20649;-78
2023/01/21 06:58:47;;;;;;;46.30;20.77;;;;;-2.70;102349.00;;;;10376005;28;20237;-78
2023/01/21 07:03:48;;;;;;;52.77;21.00;;;;;-2.80;102354.00;;;;10378333;28;20237;-78
2023/01/21 07:08:50;;;;;;;54.33;21.70;;;;;-2.90;102352.00;;;;10367682;28;20305;-78
2023/01/21 07:13:52;;;;;;;57.10;22.60;;;;;-2.90;102366.00;;;;10369102;28;20229;-78
2023/01/21 07:18:54;;;;;;;58.10;21.80;;;;;-2.90;102375.00;;;;10367118;28;20285;-78
2023/01/21 07:23:56;;;;;;;49.33;20.93;;;;;-2.90;102382.00;;;;10365066;28;20802;-78
2023/01/21 07:28:58;;;;;;;61.97;22.20;;;;;-2.90;102385.00;;;;10376283;28;20222;-77
2023/01/21 07:34:02;;;;;;;54.03;21.30;;;;;-2.90;102391.00;;;;10395471;28;20257;-77
2023/01/21 07:39:04;;;;;;;48.73;21.60;;;;;-2.80;102407.00;;;;10373027;28;20211;-78
2023/01/21 07:44:08;;;;;;;44.07;20.07;;;;;-2.80;102413.00;;;;10381157;28;20202;-77
2023/01/21 07:49:11;;;;;;;58.23;21.33;;;;;-2.80;102424.00;;;;10398216;28;20238;-78
2023/01/21 07:54:14;;;;;;;55.50;22.57;;;;;-2.80;102423.00;;;;10362389;28;20207;-78
2023/01/21 07:59:16;;;;;;;53.40;21.33;;;;;-2.70;102428.00;;;;10370953;28;20245;-78
2023/01/21 08:04:18;;;;;;;53.67;21.17;;;;;-2.70;102438.00;;;;10356263;28;20700;-78
2023/01/21 08:09:20;;;;;;;55.53;20.57;;;;;-2.60;102451.00;;;;10366190;28;20280;-78
2023/01/21 08:14:21;;;;;;;49.57;20.90;;;;;-2.50;102456.00;;;;10385278;28;20349;-78
2023/01/21 08:19:23;;;;;;;55.10;19.33;;;;;-2.40;102473.00;;;;10405341;28;20198;-78
2023/01/21 08:24:25;;;;;;;51.03;20.70;;;;;-2.30;102477.00;;;;10364847;28;20871;-78
2023/01/21 08:29:28;;;;;;;57.83;20.90;;;;;-2.10;102480.00;;;;10345505;28;20352;-77
2023/01/21 08:34:30;;;;;;;66.40;25.30;;;;;-2.00;102491.00;;;;10386352;28;20225;-78
2023/01/21 08:39:32;;;;;;;55.07;22.70;;;;;-1.90;102491.00;;;;10371949;28;20260;-78
2023/01/21 08:44:34;;;;;;;56.00;21.60;;;;;-1.70;102494.00;;;;10385233;28;20209;-78
2023/01/21 08:49:36;;;;;;;60.73;21.73;;;;;-1.60;102508.00;;;;10371482;28;20221;-77
2023/01/21 08:54:40;;;;;;;60.63;21.07;;;;;-1.40;102517.00;;;;10373629;28;20322;-78
2023/01/21 08:59:42;;;;;;;58.17;22.20;;;;;-1.30;102513.00;;;;10382003;28;20286;-78
2023/01/21 09:04:45;;;;;;;67.47;25.43;;;;;-1.00;102513.00;;;;10367847;28;20231;-78
2023/01/21 09:09:47;;;;;;;66.83;24.03;;;;;-0.70;102519.00;;;;10356805;28;20257;-78
2023/01/21 09:14:49;;;;;;;69.33;29.23;;;;;-0.40;102525.00;;;;10390582;28;20226;-78
2023/01/21 09:19:51;;;;;;;61.83;25.40;;;;;-0.30;102527.00;;;;10351807;28;20202;-79
2023/01/21 09:24:56;;;;;;;60.50;24.83;;;;;-0.10;102543.00;;;;10381500;28;20262;-79
2023/01/21 09:29:58;;;;;;;64.93;26.70;;;;;0.10;102548.00;;;;10361367;28;20277;-78
2023/01/21 09:35:00;;;;;;;76.53;27.43;;;;;0.40;102549.00;;;;10388196;28;20199;-78
2023/01/21 09:40:02;;;;;;;68.93;29.57;;;;;0.60;102558.00;;;;10379614;28;20530;-78
2023/01/21 09:45:05;;;;;;;74.80;29.63;;;;;0.80;102565.00;;;;10382900;28;20245;-78
2023/01/21 09:50:15;;;;;;;55.10;25.50;;;;;0.90;102566.00;;;;10364710;28;20246;-78
2023/01/21 09:55:17;;;;;;;58.07;28.37;;;;;1.00;102571.00;;;;10352884;28;20195;-78
2023/01/21 10:00:41;;;;;;;57.90;25.87;;;;;1.20;102577.00;;;;10393034;28;20290;-78
2023/01/21 10:06:03;;;;;;;54.43;24.90;;;;;1.30;102587.00;;;;10364553;28;20198;-78
2023/01/21 10:11:26;;;;;;;61.10;27.10;;;;;1.30;102600.00;;;;10340671;28;20771;-78
2023/01/21 10:16:50;;;;;;;57.97;26.47;;;;;1.40;102594.00;;;;10372885;28;20203;-78
2023/01/21 10:22:02;;;;;;;60.40;27.23;;;;;1.60;102602.00;;;;10367794;28;20201;-78
2023/01/21 10:27:05;;;;;;;106.00;32.07;;;;;1.70;102595.00;;;;10385795;28;20213;-78
2023/01/21 10:32:14;;;;;;;99.83;33.67;;;;;1.80;102599.00;;;;10360189;28;20215;-78
2023/01/21 10:37:46;;;;;;;145.70;36.57;;;;;2.00;102594.00;;;;10365032;28;20205;-78
2023/01/21 10:43:00;;;;;;;159.77;39.73;;;;;2.20;102594.00;;;;10367592;28;20214;-78
2023/01/21 10:48:13;;;;;;;145.90;40.23;;;;;2.40;102597.00;;;;10370661;28;20202;-78
2023/01/21 10:53:26;;;;;;;108.03;37.73;;;;;2.60;102597.00;;;;10331790;28;20207;-78
2023/01/21 10:58:57;;;;;;;84.77;35.00;;;;;2.60;102607.00;;;;10362535;28;20229;-79
2023/01/21 11:04:04;;;;;;;85.30;35.60;;;;;2.70;102608.00;;;;10351092;28;20229;-79
2023/01/21 11:09:11;;;;;;;82.33;36.97;;;;;2.90;102605.00;;;;10366437;28;20218;-79
2023/01/21 11:14:13;;;;;;;70.47;31.03;;;;;3.00;102615.00;;;;10355048;28;20261;-79
2023/01/21 11:19:21;;;;;;;60.30;30.57;;;;;3.00;102616.00;;;;10353040;28;20244;-79
2023/01/21 11:24:24;;;;;;;61.30;28.97;;;;;2.80;102615.00;;;;10362592;28;20257;-79
2023/01/21 11:29:36;;;;;;;55.03;27.03;;;;;2.70;102630.00;;;;10362029;28;20215;-79
2023/01/21 11:34:44;;;;;;;51.10;25.77;;;;;2.70;102633.00;;;;10375804;28;20207;-79
2023/01/21 11:39:52;;;;;;;51.30;24.90;;;;;2.60;102640.00;;;;10365938;28;20199;-79
2023/01/21 11:45:03;;;;;;;50.67;25.87;;;;;2.90;102633.00;;;;10375348;28;20203;-78
2023/01/21 11:50:36;;;;;;;49.63;25.53;;;;;3.00;102639.00;;;;10377992;28;20314;-79
2023/01/21 11:55:44;;;;;;;46.40;22.67;;;;;3.00;102645.00;;;;10398980;28;20194;-78
2023/01/21 12:00:49;;;;;;;48.53;22.10;;;;;2.90;102647.00;;;;10406741;28;20191;-78
2023/01/21 12:05:52;;;;;;;48.93;25.20;;;;;2.60;102655.00;;;;10392656;28;20223;-79
2023/01/21 12:11:00;;;;;;;55.17;27.43;;;;;2.40;102655.00;;;;10390480;28;20353;-78
2023/01/21 12:16:21;;;;;;;54.10;28.27;;;;;2.00;102658.00;;;;10349545;28;20203;-79
2023/01/21 12:21:56;;;;;;;54.90;25.73;;;;;2.00;102658.00;;;;10351218;28;20284;-79
2023/01/21 12:27:17;;;;;;;65.40;28.03;;;;;1.80;102663.00;;;;10372708;28;20284;-79
2023/01/21 12:32:30;;;;;;;69.17;29.73;;;;;1.30;102673.00;;;;10381984;28;20233;-79
2023/01/21 12:37:38;;;;;;;62.43;28.30;;;;;0.90;102673.00;;;;10377633;28;20772;-79
2023/01/21 12:42:46;;;;;;;60.23;30.10;;;;;0.70;102680.00;;;;10381877;28;20573;-78
2023/01/21 12:48:23;;;;;;;61.80;25.57;;;;;0.70;102686.00;;;;10373415;28;20281;-78
2023/01/21 12:53:35;;;;;;;69.90;26.93;;;;;0.50;102697.00;;;;10346436;28;20391;-79
2023/01/21 12:58:42;;;;;;;58.17;25.00;;;;;0.50;102691.00;;;;10376916;28;20199;-78
2023/01/21 13:04:05;;;;;;;63.13;26.23;;;;;0.50;102699.00;;;;10373837;28;20206;-78
2023/01/21 13:09:28;;;;;;;54.73;23.83;;;;;0.20;102702.00;;;;10383645;28;20220;-78
2023/01/21 13:14:38;;;;;;;53.07;20.87;;;;;0.50;102698.00;;;;10367906;28;20226;-78
2023/01/21 13:19:40;;;;;;;52.20;23.43;;;;;0.60;102694.00;;;;10364507;28;20195;-78
2023/01/21 13:24:53;;;;;;;52.70;22.73;;;;;0.60;102701.00;;;;10393361;28;20214;-79
2023/01/21 13:30:17;;;;;;;55.50;24.07;;;;;0.60;102693.00;;;;10373749;28;20500;-81
2023/01/21 13:35:57;;;;;;;65.43;23.70;;;;;0.50;102689.00;;;;10399317;28;20195;-80
2023/01/21 13:41:17;;;;;;;55.03;24.10;;;;;0.80;102692.00;;;;10349573;28;20571;-79
2023/01/21 13:46:35;;;;;;;59.70;23.10;;;;;0.90;102686.00;;;;10368821;28;20199;-79
2023/01/21 13:51:52;;;;;;;61.50;24.43;;;;;1.00;102685.00;;;;10351126;28;20932;-79
2023/01/21 13:57:20;;;;;;;57.63;22.93;;;;;1.10;102680.00;;;;10360724;28;20202;-79
2023/01/21 14:02:29;;;;;;;66.63;24.40;;;;;1.10;102677.00;;;;10385869;28;20198;-79
2023/01/21 14:07:36;;;;;;;56.10;21.07;;;;;1.10;102670.00;;;;10369782;28;20206;-78
2023/01/21 14:13:06;;;;;;;52.53;21.33;;;;;1.20;102664.00;;;;10365581;28;20317;-78
2023/01/21 14:18:13;;;;;;;51.77;21.60;;;;;1.10;102655.00;;;;10343236;28;20222;-79
2023/01/21 14:23:34;;;;;;;51.27;22.33;;;;;1.10;102660.00;;;;10365404;28;20289;-78
2023/01/21 14:28:50;;;;;;;54.33;22.67;;;;;1.40;102645.00;;;;10360767;28;20300;-78
2023/01/21 14:34:00;;;;;;;43.50;18.57;;;;;1.20;102632.00;;;;10364552;28;20199;-79
2023/01/21 14:39:18;;;;;;;54.23;19.97;;;;;1.00;102633.00;;;;10336418;28;20400;-79
2023/01/21 14:44:42;;;;;;;48.93;19.33;;;;;0.90;102642.00;;;;10381608;28;20190;-79
2023/01/21 14:49:47;;;;;;;51.93;20.53;;;;;0.80;102633.00;;;;10346086;28;20249;-79
2023/01/21 14:54:49;;;;;;;55.23;20.87;;;;;0.70;102647.00;;;;10367558;28;20198;-79
2023/01/21 14:59:52;;;;;;;52.87;21.43;;;;;0.60;102650.00;;;;10367457;28;20200;-79
2023/01/21 15:04:58;;;;;;;53.23;20.77;;;;;0.70;102659.00;;;;10379393;28;20207;-78
2023/01/21 15:10:12;;;;;;;56.33;21.57;;;;;0.60;102662.00;;;;10349220;28;20237;-79
2023/01/21 15:15:35;;;;;;;52.17;21.67;;;;;0.50;102674.00;;;;10373753;28;20245;-79
2023/01/21 15:20:49;;;;;;;54.77;21.20;;;;;0.50;102676.00;;;;10371933;28;20203;-79
2023/01/21 15:26:07;;;;;;;43.37;19.10;;;;;0.40;102686.00;;;;10374746;28;20204;-79
2023/01/21 15:31:22;;;;;;;50.13;19.10;;;;;0.30;102690.00;;;;10366442;28;20900;-79
2023/01/21 15:36:28;;;;;;;51.03;20.43;;;;;0.20;102693.00;;;;10371319;28;20258;-79
2023/01/21 15:41:46;;;;;;;47.50;18.40;;;;;0.10;102706.00;;;;10388804;28;20219;-79
2023/01/21 15:47:04;;;;;;;52.33;19.67;;;;;0.10;102708.00;;;;10383413;28;20191;-78
2023/01/21 15:52:39;;;;;;;44.63;18.73;;;;;0.00;102716.00;;;;10402909;28;20632;-79
2023/01/21 15:58:05;;;;;;;52.13;19.63;;;;;0.00;102715.00;;;;10377174;28;20301;-78
2023/01/21 16:03:25;;;;;;;57.60;19.10;;;;;0.00;102713.00;;;;10368356;28;20218;-79
2023/01/21 16:08:59;;;;;;;50.40;19.30;;;;;0.00;102717.00;;;;10381592;28;20227;-78
2023/01/21 16:14:20;;;;;;;52.80;19.20;;;;;0.00;102717.00;;;;10375053;28;20221;-79
2023/01/21 16:19:27;;;;;;;47.03;19.47;;;;;0.00;102714.00;;;;10403106;28;20233;-78
2023/01/21 16:24:31;;;;;;;55.33;19.73;;;;;0.00;102704.00;;;;10365815;28;20205;-79
2023/01/21 16:29:37;;;;;;;50.83;19.87;;;;;-0.10;102709.00;;;;10397870;28;20298;-78
2023/01/21 16:34:41;;;;;;;46.73;18.63;;;;;-0.10;102703.00;;;;10393449;28;20202;-77
2023/01/21 16:39:44;;;;;;;48.37;19.57;;;;;-0.20;102704.00;;;;10364322;28;20215;-79
2023/01/21 16:44:46;;;;;;;43.93;18.13;;;;;-0.50;102692.00;;;;10340724;28;20254;-78
2023/01/21 16:49:48;;;;;;;50.37;19.93;;;;;-0.70;102681.00;;;;10368924;28;20219;-78
2023/01/21 16:54:52;;;;;;;51.67;20.87;;;;;-0.90;102676.00;;;;10350388;28;20203;-78
2023/01/21 16:59:56;;;;;;;53.90;20.63;;;;;-0.90;102690.00;;;;10350562;28;20203;-78
2023/01/21 17:05:03;;;;;;;44.70;17.47;;;;;-1.00;102684.00;;;;10349717;28;20199;-79
2023/01/21 17:10:15;;;;;;;48.37;18.37;;;;;-1.10;102688.00;;;;10335938;28;20239;-79
2023/01/21 17:15:34;;;;;;;49.97;19.73;;;;;-1.10;102699.00;;;;10415154;28;20214;-79
2023/01/21 17:20:57;;;;;;;99.73;54.37;;;;;-1.20;102704.00;;;;10416332;28;20281;-78
2023/01/21 17:26:08;;;;;;;68.77;27.20;;;;;-0.90;102697.00;;;;10362318;28;20666;-78
2023/01/21 17:31:40;;;;;;;58.07;24.83;;;;;-0.90;102710.00;;;;10358429;28;20697;-78
2023/01/21 17:36:45;;;;;;;66.80;23.60;;;;;-0.80;102710.00;;;;10378007;28;20199;-79
2023/01/21 17:41:47;;;;;;;63.03;25.17;;;;;-0.80;102710.00;;;;10374988;28;20717;-79
2023/01/21 17:46:52;;;;;;;65.13;26.83;;;;;-0.80;102717.00;;;;10381474;28;20217;-79
2023/01/21 17:51:55;;;;;;;62.83;24.07;;;;;-0.80;102717.00;;;;10371377;28;20586;-79
2023/01/21 17:56:59;;;;;;;58.27;23.50;;;;;-0.80;102722.00;;;;10337106;28;20306;-79
2023/01/21 18:02:03;;;;;;;56.63;22.37;;;;;-0.80;102732.00;;;;10392025;28;20195;-79
2023/01/21 18:07:23;;;;;;;58.53;22.23;;;;;-0.70;102739.00;;;;10376321;28;20698;-79
2023/01/21 18:12:26;;;;;;;53.97;19.53;;;;;-0.60;102742.00;;;;10390992;28;20214;-78
2023/01/21 18:17:27;;;;;;;64.17;25.47;;;;;-0.60;102734.00;;;;10393066;28;20191;-78
2023/01/21 18:22:30;;;;;;;68.53;25.20;;;;;-0.60;102745.00;;;;10382069;28;20290;-79
2023/01/21 18:27:32;;;;;;;67.97;26.07;;;;;-0.60;102736.00;;;;10375694;28;20199;-79
2023/01/21 18:32:34;;;;;;;55.70;24.07;;;;;-0.50;102736.00;;;;10365639;28;20238;-79
2023/01/21 18:37:36;;;;;;;54.30;24.10;;;;;-0.50;102752.00;;;;10390797;28;20278;-79
2023/01/21 18:42:38;;;;;;;64.73;25.23;;;;;-0.40;102755.00;;;;10389492;28;20665;-79
2023/01/21 18:47:40;;;;;;;59.03;22.17;;;;;-0.40;102746.00;;;;10400633;28;20198;-79
2023/01/21 18:52:42;;;;;;;75.23;27.90;;;;;-0.30;102755.00;;;;10379965;28;20207;-79
2023/01/21 18:57:48;;;;;;;62.37;22.37;;;;;-0.30;102756.00;;;;10380793;28;20201;-79
2023/01/21 19:02:52;;;;;;;71.83;28.33;;;;;-0.30;102755.00;;;;10381576;28;20195;-79
2023/01/21 19:07:55;;;;;;;73.77;27.97;;;;;-0.20;102753.00;;;;10355038;28;20539;-79
2023/01/21 19:12:57;;;;;;;53.83;21.23;;;;;-0.20;102772.00;;;;10322866;28;20326;-79
2023/01/21 19:17:59;;;;;;;60.97;22.63;;;;;-0.20;102773.00;;;;10406595;28;20199;-78
2023/01/21 19:23:01;;;;;;;58.57;23.13;;;;;-0.20;102779.00;;;;10411344;28;20201;-79
2023/01/21 19:28:03;;;;;;;56.47;23.97;;;;;-0.20;102773.00;;;;10394291;28;20187;-79
2023/01/21 19:33:07;;;;;;;53.13;21.80;;;;;-0.20;102770.00;;;;10380048;28;20237;-79
2023/01/21 19:38:16;;;;;;;65.50;23.03;;;;;-0.20;102778.00;;;;10345510;28;20839;-79
2023/01/21 19:43:20;;;;;;;55.73;21.40;;;;;-0.20;102773.00;;;;10362405;28;20269;-78
2023/01/21 19:48:22;;;;;;;54.63;20.57;;;;;-0.20;102776.00;;;;10390829;28;20219;-79
2023/01/21 19:53:24;;;;;;;59.87;22.50;;;;;-0.20;102780.00;;;;10379176;28;20292;-79
2023/01/21 19:58:30;;;;;;;63.83;25.13;;;;;-0.20;102793.00;;;;10376403;28;20204;-79
2023/01/21 20:03:32;;;;;;;51.40;22.23;;;;;-0.20;102794.00;;;;10369086;28;20219;-79
2023/01/21 20:08:34;;;;;;;49.87;21.00;;;;;-0.20;102803.00;;;;10365626;28;20819;-79
2023/01/21 20:13:38;;;;;;;62.87;24.77;;;;;-0.30;102801.00;;;;10375943;28;20283;-79
2023/01/21 20:18:41;;;;;;;53.90;21.50;;;;;-0.30;102789.00;;;;10424153;28;20246;-78
2023/01/21 20:23:43;;;;;;;57.43;20.73;;;;;-0.30;102797.00;;;;10391719;28;20202;-79
2023/01/21 20:28:49;;;;;;;64.37;23.63;;;;;-0.30;102801.00;;;;10371717;28;20875;-79
2023/01/21 20:33:51;;;;;;;63.03;22.67;;;;;-0.30;102802.00;;;;10371131;28;21195;-79
2023/01/21 20:38:54;;;;;;;58.97;19.63;;;;;-0.40;102792.00;;;;10377538;28;20209;-79
2023/01/21 20:43:56;;;;;;;69.63;22.93;;;;;-0.40;102795.00;;;;10393074;28;20657;-79
2023/01/21 20:48:58;;;;;;;50.47;19.97;;;;;-0.40;102788.00;;;;10349316;28;20223;-79
2023/01/21 20:54:00;;;;;;;54.73;19.97;;;;;-0.40;102793.00;;;;10375138;28;20215;-79
2023/01/21 20:59:02;;;;;;;45.00;18.67;;;;;-0.50;102798.00;;;;10382914;28;20200;-79
2023/01/21 21:04:04;;;;;;;60.13;20.93;;;;;-0.50;102798.00;;;;10352065;28;20203;-79
2023/01/21 21:09:08;;;;;;;51.90;21.30;;;;;-0.60;102793.00;;;;10345435;28;20227;-79
2023/01/21 21:14:12;;;;;;;47.20;19.13;;;;;-0.70;102790.00;;;;10383146;28;20685;-79
2023/01/21 21:19:14;;;;;;;54.73;22.03;;;;;-0.80;102797.00;;;;10359994;28;20571;-78
2023/01/21 21:24:18;;;;;;;59.40;22.90;;;;;-0.70;102805.00;;;;10325485;28;20233;-79
2023/01/21 21:29:20;;;;;;;67.87;22.77;;;;;-0.60;102802.00;;;;10346913;28;20253;-79
2023/01/21 21:34:24;;;;;;;63.73;22.80;;;;;-0.60;102799.00;;;;10374371;28;20318;-79
2023/01/21 21:39:27;;;;;;;55.93;20.53;;;;;-0.60;102796.00;;;;10363585;28;20206;-79
2023/01/21 21:44:29;;;;;;;48.43;18.57;;;;;-0.60;102810.00;;;;10385410;28;20268;-79
2023/01/21 21:49:31;;;;;;;51.13;20.50;;;;;-0.60;102814.00;;;;10396391;28;20620;-79
2023/01/21 21:54:33;;;;;;;60.67;21.07;;;;;-0.60;102809.00;;;;10392894;28;20670;-79
2023/01/21 21:59:35;;;;;;;54.27;18.87;;;;;-0.50;102806.00;;;;10360188;28;20203;-79
2023/01/21 22:04:37;;;;;;;57.70;21.27;;;;;-0.50;102814.00;;;;10376775;28;20199;-79
2023/01/21 22:09:39;;;;;;;59.27;21.90;;;;;-0.50;102799.00;;;;10387021;28;20194;-78
2023/01/21 22:14:40;;;;;;;59.00;22.53;;;;;-0.50;102808.00;;;;10387690;28;20230;-79
2023/01/21 22:19:42;;;;;;;63.47;22.07;;;;;-0.50;102809.00;;;;10394392;28;20204;-79
2023/01/21 22:24:44;;;;;;;54.17;19.23;;;;;-0.50;102787.00;;;;10392727;28;20281;-79
2023/01/21 22:29:46;;;;;;;54.30;20.47;;;;;-0.50;102788.00;;;;10390578;28;20203;-78
2023/01/21 22:34:48;;;;;;;51.67;20.53;;;;;-0.50;102788.00;;;;10391201;28;20195;-79
2023/01/21 22:39:50;;;;;;;55.83;20.07;;;;;-0.40;102796.00;;;;10374569;28;20195;-79
2023/01/21 22:44:52;;;;;;;58.47;22.43;;;;;-0.50;102781.00;;;;10375046;28;20282;-79
2023/01/21 22:49:54;;;;;;;56.07;22.77;;;;;-0.50;102780.00;;;;10390518;28;20245;-79
2023/01/21 22:54:56;;;;;;;54.90;21.90;;;;;-0.50;102786.00;;;;10374670;28;20186;-79
2023/01/21 22:59:58;;;;;;;52.37;20.03;;;;;-0.50;102795.00;;;;10373425;28;20210;-78
2023/01/21 23:05:03;;;;;;;55.80;21.77;;;;;-0.50;102800.00;;;;10361124;28;20203;-79
2023/01/21 23:10:05;;;;;;;34.57;15.50;;;;;-0.50;102804.00;;;;10388938;28;20214;-79
2023/01/21 23:15:07;;;;;;;39.70;15.77;;;;;-0.60;102800.00;;;;10403269;28;20272;-79
2023/01/21 23:20:09;;;;;;;51.87;18.80;;;;;-0.60;102798.00;;;;10410918;28;20242;-79
2023/01/21 23:25:13;;;;;;;56.70;21.10;;;;;-0.70;102790.00;;;;10370713;28;20254;-79
2023/01/21 23:30:16;;;;;;;49.60;19.20;;;;;-0.70;102785.00;;;;10383764;28;20223;-79
2023/01/21 23:35:19;;;;;;;49.30;19.47;;;;;-0.70;102768.00;;;;10368108;28;20297;-79
2023/01/21 23:40:21;;;;;;;48.20;18.43;;;;;-0.70;102776.00;;;;10396281;28;20661;-79
2023/01/21 23:45:23;;;;;;;50.10;18.10;;;;;-0.70;102765.00;;;;10411561;28;20665;-79
2023/01/21 23:50:24;;;;;;;49.93;19.47;;;;;-0.80;102767.00;;;;10373806;28;20223;-79
2023/01/21 23:55:26;;;;;;;46.97;17.53;;;;;-0.80;102768.00;;;;10384589;28;20198;-79
